Time;durP1;ratioP1;P1;durP2;ratioP2;P2;SDS_P1;SDS_P2;PMS_P1;PMS_P2;Temp;Humidity;BMP_temperature;BMP_pressure;BME280_temperature;BME280_humidity;BME280_pressure;Samples;Min_cycle;Max_cycle;Signal;HPM_P1;HPM_P2
2021/12/24 00:01:07;;;;;;;9.43;5.13;;;;;;;-11.55;72.19;98711.84;4845619;29;20072;-69
2021/12/24 00:03:33;;;;;;;11.15;4.45;;;;;;;-11.49;71.83;98716.13;4846370;29;20071;-69
2021/12/24 00:05:58;;;;;;;7.03;4.55;;;;;;;-11.52;72.24;98723.84;4844269;29;20048;-70
2021/12/24 00:08:24;;;;;;;6.70;4.10;;;;;;;-11.51;72.04;98715.28;4849768;29;20045;-70
2021/12/24 00:10:58;;;;;;;6.35;3.47;;;;;;;-11.47;71.58;98714.41;4845399;29;20572;-71
2021/12/24 00:13:27;;;;;;;7.68;4.13;;;;;;;-11.40;72.19;98716.97;4845269;29;20076;-71
2021/12/24 00:18:39;;;;;;;6.13;2.60;;;;;;;-11.41;71.60;98715.31;4846899;29;20063;-72
2021/12/24 00:35:32;;;;;;;7.20;4.25;;;;;;;-11.65;72.81;98709.25;4775224;29;20199;-67
2021/12/24 00:38:03;;;;;;;7.10;4.30;;;;;;;-11.74;72.76;98700.66;4790570;29;20535;-66
2021/12/24 00:40:33;;;;;;;7.43;4.25;;;;;;;-11.66;72.74;98692.97;4790104;29;20061;-67
2021/12/24 00:42:59;;;;;;;6.10;3.38;;;;;;;-11.60;72.85;98682.69;4805795;29;21034;-69
2021/12/24 00:48:19;;;;;;;10.95;4.50;;;;;;;-11.42;72.41;98681.88;4805849;29;20045;-68
2021/12/24 00:56:09;;;;;;;6.82;4.78;;;;;;;-11.60;71.48;98667.25;4790223;29;19928;-68
2021/12/24 00:58:36;;;;;;;6.82;4.03;;;;;;;-11.54;71.89;98671.56;4805507;29;20140;-67
2021/12/24 01:01:03;;;;;;;6.03;2.97;;;;;;;-11.48;71.87;98661.28;4790114;29;20134;-67
2021/12/24 01:03:29;;;;;;;7.00;3.58;;;;;;;-11.56;71.24;98663.84;4775208;29;20315;-69
2021/12/24 01:05:56;;;;;;;4.22;2.53;;;;;;;-11.55;71.17;98657.84;4789865;29;20054;-69
2021/12/24 01:08:21;;;;;;;3.30;2.40;;;;;;;-11.52;71.55;98650.16;4789381;29;20071;-68
2021/12/24 01:10:55;;;;;;;5.28;3.63;;;;;;;-11.65;71.54;98657.84;4809138;29;20046;-67
2021/12/24 01:13:21;;;;;;;5.22;3.38;;;;;;;-11.56;71.83;98642.41;4845931;29;20040;-67
2021/12/24 01:16:07;;;;;;;6.20;3.55;;;;;;;-11.80;71.92;98646.72;4830663;29;20052;-67
2021/12/24 01:18:40;;;;;;;7.38;3.00;;;;;;;-11.81;71.61;98649.28;4830287;29;20047;-66
2021/12/24 01:26:14;;;;;;;8.13;4.53;;;;;;;-12.00;71.96;98642.41;4862597;29;20521;-69
2021/12/24 01:39:39;;;;;;;5.32;3.35;;;;;;;-11.66;71.75;98645.84;4845353;29;20104;-66
2021/12/24 01:44:53;;;;;;;5.38;3.35;;;;;;;-11.84;71.74;98633.84;4845511;29;20052;-68
2021/12/24 01:47:19;;;;;;;4.47;3.15;;;;;;;-11.66;72.07;98631.28;4845310;29;20044;-66
2021/12/24 01:49:45;;;;;;;5.95;3.83;;;;;;;-11.61;72.42;98628.69;4845514;29;20052;-65
2021/12/24 01:52:15;;;;;;;9.85;4.75;;;;;;;-11.60;71.60;98632.97;4829931;29;20045;-68
2021/12/24 01:54:46;;;;;;;6.35;3.38;;;;;;;-11.53;71.36;98633.00;4830186;29;20076;-64
2021/12/24 01:57:13;;;;;;;6.03;3.20;;;;;;;-11.49;72.04;98632.13;4849334;29;20087;-66
2021/12/24 01:59:38;;;;;;;5.22;3.42;;;;;;;-11.55;71.75;98637.28;4850503;29;20059;-65
2021/12/24 02:02:03;;;;;;;9.48;5.25;;;;;;;-11.59;71.59;98617.56;4851617;29;20143;-66
2021/12/24 02:04:28;;;;;;;5.88;3.92;;;;;;;-11.50;71.19;98622.69;4833935;29;20048;-63
2021/12/24 02:06:53;;;;;;;10.38;4.68;;;;;;;-11.48;71.58;98615.84;4845192;29;20052;-65
2021/12/24 02:09:17;;;;;;;6.60;3.70;;;;;;;-11.33;71.95;98604.69;4861681;29;20055;-65
2021/12/24 02:11:43;;;;;;;8.25;2.90;;;;;;;-11.27;71.04;98608.97;4845070;29;20091;-64
2021/12/24 02:14:16;;;;;;;7.93;3.67;;;;;;;-11.24;71.44;98609.81;4830228;29;20048;-64
2021/12/24 02:28:31;;;;;;;8.25;3.88;;;;;;;-11.24;70.52;98588.38;4861943;29;20041;-62
2021/12/24 02:30:25;;;;;;;5.68;3.53;;;;;;;-11.19;71.05;98592.69;4835416;29;20120;-69
2021/12/24 02:32:50;;;;;;;7.50;4.22;;;;;;;-11.18;70.52;98594.38;4845057;29;20072;-66
2021/12/24 02:35:18;;;;;;;6.38;3.80;;;;;;;-11.12;70.80;98583.22;4828975;29;20049;-69
2021/12/24 02:37:43;;;;;;;7.80;3.92;;;;;;;-11.20;70.65;98584.97;4844380;29;20070;-68
2021/12/24 02:40:09;;;;;;;6.20;4.07;;;;;;;-11.32;70.66;98580.69;4823231;29;20072;-67
2021/12/24 02:42:35;;;;;;;7.07;3.78;;;;;;;-11.29;71.25;98578.13;4825755;29;20397;-66
2021/12/24 02:45:01;;;;;;;9.90;5.63;;;;;;;-11.41;71.37;98567.84;4842920;29;20453;-67
2021/12/24 02:55:30;;;;;;;8.25;5.05;;;;;;;-11.27;71.19;98545.50;4773423;29;20095;-68
2021/12/24 02:57:54;;;;;;;7.18;4.50;;;;;;;-11.16;71.50;98550.63;4803819;29;20114;-67
2021/12/24 03:00:25;;;;;;;9.50;5.95;;;;;;;-11.19;71.11;98560.94;4803707;29;20413;-73
2021/12/24 03:02:49;;;;;;;8.25;4.85;;;;;;;-11.06;71.24;98554.91;4804157;29;20057;-69
2021/12/24 03:05:17;;;;;;;13.60;4.70;;;;;;;-11.15;70.65;98570.34;4788799;29;20061;-70
2021/12/24 03:07:43;;;;;;;7.57;3.60;;;;;;;-10.98;70.88;98558.31;4803546;29;20544;-70
2021/12/24 03:10:15;;;;;;;12.25;4.95;;;;;;;-10.97;70.99;98554.00;4804088;29;20513;-65
2021/12/24 03:12:44;;;;;;;9.57;5.43;;;;;;;-11.11;70.46;98559.19;4788702;29;20034;-68
2021/12/24 03:15:10;;;;;;;8.35;4.93;;;;;;;-11.08;70.42;98548.91;4788970;29;20103;-70
2021/12/24 03:17:35;;;;;;;9.68;4.75;;;;;;;-11.09;70.30;98552.34;4803827;29;20049;-68
2021/12/24 03:20:07;;;;;;;9.77;5.72;;;;;;;-11.24;70.50;98529.22;4803212;29;20061;-71
2021/12/24 03:24:56;;;;;;;9.23;4.10;;;;;;;-11.05;70.56;98528.28;4788656;29;20568;-68
2021/12/24 03:27:22;;;;;;;7.43;4.15;;;;;;;-11.02;70.87;98539.44;4810641;29;20136;-69
2021/12/24 03:29:48;;;;;;;8.10;3.25;;;;;;;-11.00;70.54;98526.56;4842794;29;20056;-71
2021/12/24 03:32:13;;;;;;;7.00;4.40;;;;;;;-11.13;70.60;98533.47;4827408;29;20041;-72
2021/12/24 03:34:38;;;;;;;5.53;3.80;;;;;;;-11.06;70.00;98526.59;4843988;29;20059;-73
2021/12/24 03:37:05;;;;;;;7.30;3.67;;;;;;;-11.06;70.04;98521.47;4826190;29;20064;-70
2021/12/24 03:39:31;;;;;;;7.18;4.35;;;;;;;-11.17;70.43;98528.34;4811995;29;20055;-72
2021/12/24 03:41:57;;;;;;;8.20;4.82;;;;;;;-11.07;70.40;98524.88;4845210;29;20059;-73
2021/12/24 03:45:07;;;;;;;8.20;3.78;;;;;;;-10.97;70.23;98526.56;4843937;29;20062;-65
2021/12/24 03:47:21;;;;;;;12.77;5.82;;;;;;;-11.10;70.34;98522.31;4842432;29;20116;-66
2021/12/24 03:50:02;;;;;;;8.48;4.57;;;;;;;-11.07;70.47;98519.75;4844071;29;20399;-66
2021/12/24 03:54:59;;;;;;;9.43;5.00;;;;;;;-11.28;70.64;98519.78;4844327;29;20056;-64
2021/12/24 03:57:40;;;;;;;7.93;4.30;;;;;;;-11.43;70.95;98516.41;4844416;29;20056;-65
2021/12/24 04:00:32;;;;;;;7.35;4.53;;;;;;;-11.48;70.95;98515.56;4860445;29;20411;-65
2021/12/24 04:03:15;;;;;;;11.77;4.95;;;;;;;-11.54;71.56;98505.31;4843902;29;20397;-64
2021/12/24 04:05:40;;;;;;;9.48;5.32;;;;;;;-11.41;71.42;98513.84;4861022;29;20099;-64
2021/12/24 04:08:24;;;;;;;4.32;3.40;;;;;;;-11.28;71.40;98507.78;4860991;29;20496;-65
2021/12/24 04:11:11;;;;;;;10.90;5.32;;;;;;;-11.35;70.93;98513.81;4844525;29;20693;-65
2021/12/24 04:13:38;;;;;;;5.85;3.50;;;;;;;-11.30;70.96;98511.25;4843889;29;20388;-65
2021/12/24 04:16:04;;;;;;;8.45;3.95;;;;;;;-11.36;70.38;98504.38;4844187;29;20415;-64
2021/12/24 11:14:48;;;;;;;15.45;6.85;;;;;;;-9.28;66.46;98293.91;4979510;23;20061;-78
2021/12/24 11:17:38;;;;;;;12.20;5.55;;;;;;;-9.10;66.68;98289.34;4826702;29;20144;-79
2021/12/24 11:20:09;;;;;;;14.00;7.10;;;;;;;-9.37;67.25;98295.75;4812045;29;20124;-74
2021/12/24 11:22:58;;;;;;;14.60;8.20;;;;;;;-9.37;66.86;98281.13;4827486;29;20048;-73
2021/12/24 11:28:23;;;;;;;16.65;8.95;;;;;;;-9.42;67.64;98277.75;4812284;29;20043;-72
2021/12/24 11:31:18;;;;;;;8.15;5.85;;;;;;;-9.31;67.12;98280.19;4844483;29;20051;-71
2021/12/24 11:33:46;;;;;;;13.70;5.55;;;;;;;-9.20;66.76;98281.72;4844143;29;20123;-75
2021/12/24 11:36:16;;;;;;;7.03;4.90;;;;;;;-9.20;66.72;98278.28;4827148;29;20045;-73
2021/12/24 11:38:47;;;;;;;8.15;3.83;;;;;;;-9.16;66.78;98269.66;4811168;29;20148;-74
2021/12/24 11:41:15;;;;;;;7.18;4.18;;;;;;;-9.32;66.85;98269.00;4843349;29;20082;-74
2021/12/24 11:43:47;;;;;;;4.45;2.50;;;;;;;-9.31;67.58;98273.28;4842948;29;20049;-74
2021/12/24 11:46:20;;;;;;;14.98;8.70;;;;;;;-9.39;67.28;98282.88;4826238;29;20056;-75
2021/12/24 11:48:48;;;;;;;6.85;4.22;;;;;;;-9.51;67.88;98275.31;4826621;29;20045;-71
2021/12/24 11:51:17;;;;;;;12.68;6.65;;;;;;;-9.49;68.70;98281.31;4813414;29;20140;-74
2021/12/24 11:53:45;;;;;;;14.68;7.18;;;;;;;-9.46;68.60;98286.41;4847821;29;20077;-78
2021/12/24 11:56:13;;;;;;;15.82;8.52;;;;;;;-9.51;67.77;98298.53;4830748;29;20069;-74
2021/12/24 11:58:50;;;;;;;10.57;6.45;;;;;;;-9.45;68.54;98293.25;4830870;29;20045;-72
2021/12/24 12:01:19;;;;;;;10.15;4.85;;;;;;;-9.31;67.58;98281.03;4847330;29;20049;-75
2021/12/24 12:04:09;;;;;;;8.15;4.93;;;;;;;-9.31;67.56;98291.34;4824352;29;20115;-71
2021/12/24 12:06:34;;;;;;;12.63;7.60;;;;;;;-9.29;68.01;98284.44;4831138;29;20109;-68
2021/12/24 12:09:06;;;;;;;11.35;5.68;;;;;;;-9.22;67.63;98285.19;4819934;29;20041;-66
2021/12/24 12:11:35;;;;;;;13.32;5.45;;;;;;;-9.34;67.25;98269.91;4841198;29;20103;-69
2021/12/24 12:14:07;;;;;;;3.47;2.65;;;;;;;-9.19;67.11;98280.00;4855257;29;20061;-72
2021/12/24 12:16:39;;;;;;;15.23;7.50;;;;;;;-9.26;66.82;98278.41;4864403;29;20052;-71
2021/12/24 12:19:15;;;;;;;10.50;6.80;;;;;;;-9.45;68.02;98282.09;4847652;29;20125;-68
2021/12/24 12:22:10;;;;;;;13.52;7.15;;;;;;;-9.26;67.55;98281.84;4832353;29;20048;-70
2021/12/24 12:24:58;;;;;;;19.13;4.70;;;;;;;-9.24;67.92;98285.22;4848356;29;20072;-68
2021/12/24 12:27:32;;;;;;;6.72;3.65;;;;;;;-9.19;67.33;98275.69;4862272;29;20439;-78
2021/12/24 12:30:22;;;;;;;6.40;3.83;;;;;;;-9.24;66.66;98282.63;4832826;29;20116;-66
2021/12/24 12:32:50;;;;;;;17.02;8.63;;;;;;;-9.54;67.97;98262.44;4845881;29;20080;-65
2021/12/24 12:35:17;;;;;;;15.15;8.85;;;;;;;-9.57;68.60;98259.91;4864103;29;20052;-67
2021/12/24 12:37:51;;;;;;;13.13;6.32;;;;;;;-9.34;67.67;98273.31;4847895;29;20059;-71
2021/12/24 12:40:16;;;;;;;16.10;8.20;;;;;;;-9.36;67.28;98282.81;4847341;29;20049;-73
2021/12/24 12:42:55;;;;;;;7.18;4.70;;;;;;;-9.30;66.80;98267.25;4847121;29;20047;-74
2021/12/24 12:45:38;;;;;;;13.75;5.68;;;;;;;-9.42;67.55;98271.75;4847729;29;20135;-71
2021/12/24 12:48:07;;;;;;;6.40;4.35;;;;;;;-9.20;67.64;98274.00;4847869;29;20060;-64
2021/12/24 12:50:34;;;;;;;15.27;5.47;;;;;;;-9.50;68.23;98284.75;4831227;29;20108;-64
2021/12/24 12:53:22;;;;;;;3.03;2.22;;;;;;;-9.44;67.83;98273.47;4863608;29;20043;-64
2021/12/24 12:56:07;;;;;;;8.52;4.82;;;;;;;-9.49;67.75;98264.97;4861158;29;20044;-69
2021/12/24 12:58:35;;;;;;;8.07;3.35;;;;;;;-9.55;68.45;98258.16;4850409;29;20052;-69
2021/12/24 13:01:13;;;;;;;16.20;8.48;;;;;;;-9.58;68.38;98261.63;4832484;29;20503;-69
2021/12/24 13:03:55;;;;;;;12.32;6.30;;;;;;;-9.46;68.46;98255.44;4863712;29;20052;-66
2021/12/24 13:06:25;;;;;;;13.60;7.72;;;;;;;-9.64;68.39;98263.44;4847194;29;20056;-67
2021/12/24 13:09:01;;;;;;;14.40;7.20;;;;;;;-9.70;68.53;98255.78;4864296;29;20054;-67
2021/12/24 13:11:26;;;;;;;8.02;4.93;;;;;;;-9.70;69.10;98253.19;4847804;29;20098;-68
2021/12/24 13:13:57;;;;;;;10.48;6.05;;;;;;;-9.50;68.15;98271.00;4847246;29;20084;-66
2021/12/24 13:16:33;;;;;;;14.77;7.53;;;;;;;-9.54;68.46;98252.97;4845593;29;20466;-68
2021/12/24 13:22:32;;;;;;;15.50;8.25;;;;;;;-9.41;67.89;98257.97;4848204;29;20124;-69
2021/12/24 13:25:10;;;;;;;13.55;7.50;;;;;;;-9.52;68.27;98245.22;4846730;29;20059;-67
2021/12/24 13:27:52;;;;;;;14.75;8.10;;;;;;;-9.51;68.60;98233.19;4844317;29;20049;-68
2021/12/24 13:30:20;;;;;;;8.02;4.25;;;;;;;-9.48;67.85;98238.31;4845808;29;20123;-68
2021/12/24 13:32:51;;;;;;;11.40;6.40;;;;;;;-9.62;68.91;98251.38;4843366;29;20056;-67
2021/12/24 13:35:19;;;;;;;10.25;5.60;;;;;;;-9.56;68.57;98244.41;4845593;29;20076;-65
2021/12/24 13:37:46;;;;;;;13.63;6.53;;;;;;;-9.49;68.81;98239.19;4844044;29;20049;-66
2021/12/24 13:40:16;;;;;;;14.15;6.32;;;;;;;-9.46;68.98;98236.53;4842913;29;20057;-68
2021/12/24 13:42:55;;;;;;;17.70;8.35;;;;;;;-9.60;68.32;98222.13;4844009;29;20047;-68
2021/12/24 13:45:23;;;;;;;12.88;7.82;;;;;;;-9.58;68.26;98220.34;4840436;29;20408;-68
2021/12/24 13:48:06;;;;;;;18.45;9.27;;;;;;;-9.86;69.04;98231.09;4842925;29;20083;-68
2021/12/24 13:56:51;;;;;;;12.82;6.00;;;;;;;-9.47;68.27;98247.72;4842648;29;20056;-70
2021/12/24 13:59:26;;;;;;;16.33;6.95;;;;;;;-9.56;68.91;98234.09;4843947;29;20052;-66
2021/12/24 14:01:55;;;;;;;;;;;;;;;-9.76;69.80;98232.66;4844366;29;20151;-66
2021/12/24 14:04:22;;;;;;;17.63;8.30;;;;;;;-9.64;69.41;98224.75;4826909;29;19924;-68
2021/12/24 14:06:59;;;;;;;15.65;7.78;;;;;;;-9.68;69.55;98241.13;4842970;29;20052;-68
2021/12/24 14:09:31;;;;;;;19.90;10.70;;;;;;;-9.82;69.54;98206.97;4843239;29;20045;-68
2021/12/24 14:11:58;;;;;;;16.67;8.70;;;;;;;-9.81;69.97;98200.91;4843674;29;20040;-70
2021/12/24 14:14:54;;;;;;;14.18;7.75;;;;;;;-9.81;70.53;98208.66;4841557;29;20849;-69
2021/12/24 14:22:48;;;;;;;10.27;5.78;;;;;;;-9.90;70.08;98213.06;4843613;29;20071;-67
2021/12/24 14:25:17;;;;;;;23.33;10.57;;;;;;;-9.92;69.94;98207.06;4843783;29;20056;-69
2021/12/24 14:27:49;;;;;;;9.32;6.32;;;;;;;-9.74;69.87;98205.13;4842564;29;20838;-70
2021/12/24 14:30:47;;;;;;;19.35;11.20;;;;;;;-9.80;69.62;98192.31;4843952;29;20055;-68
2021/12/24 14:33:16;;;;;;;10.70;6.18;;;;;;;-9.86;69.89;98193.28;4843064;29;20148;-69
2021/12/24 14:35:44;;;;;;;11.23;6.63;;;;;;;-9.88;70.50;98213.06;4841777;29;20053;-68
2021/12/24 14:38:17;;;;;;;18.52;9.90;;;;;;;-9.81;70.62;98200.91;4842873;29;20097;-69
2021/12/24 14:40:58;;;;;;;15.05;7.95;;;;;;;-9.58;69.36;98188.56;4842937;29;20457;-69
2021/12/24 14:43:25;;;;;;;7.03;4.45;;;;;;;-9.59;69.53;98172.22;4843073;29;20496;-69
2021/12/24 14:45:55;;;;;;;16.98;10.52;;;;;;;-9.76;69.62;98206.88;4842486;29;20132;-69
2021/12/24 14:48:24;;;;;;;15.15;7.53;;;;;;;-9.62;70.28;98176.59;4843100;29;20053;-68
2021/12/24 14:51:04;;;;;;;20.20;10.38;;;;;;;-9.88;69.95;98176.13;4843077;29;20041;-66
2021/12/24 14:53:39;;;;;;;9.00;6.40;;;;;;;-9.76;69.72;98158.75;4841784;29;20450;-67
2021/12/24 14:56:18;;;;;;;25.60;13.25;;;;;;;-9.94;70.33;98148.72;4841805;29;20424;-67
2021/12/24 14:58:58;;;;;;;21.52;9.75;;;;;;;-10.04;70.31;98167.72;4811744;29;20533;-66
2021/12/24 15:01:33;;;;;;;17.30;9.57;;;;;;;-10.25;71.05;98145.72;4843046;29;20423;-68
2021/12/24 15:04:03;;;;;;;16.65;8.75;;;;;;;-10.12;70.89;98151.53;4844630;29;20048;-66
2021/12/24 15:06:36;;;;;;;12.02;8.27;;;;;;;-10.07;71.01;98149.75;4841882;29;20135;-66
2021/12/24 15:09:28;;;;;;;17.15;8.32;;;;;;;-9.95;70.78;98134.97;4842191;29;20044;-67
2021/12/24 15:11:55;;;;;;;20.42;11.98;;;;;;;-10.09;70.02;98129.16;4843377;29;20041;-72
2021/12/24 15:14:26;;;;;;;21.33;9.88;;;;;;;-10.12;70.29;98138.63;4853930;29;20061;-70
2021/12/24 15:16:53;;;;;;;27.63;12.38;;;;;;;-10.22;71.02;98125.06;4843632;29;20078;-72
2021/12/24 15:19:26;;;;;;;24.95;13.63;;;;;;;-10.10;70.65;98131.75;4860653;29;20046;-71
2021/12/24 15:21:56;;;;;;;19.23;9.65;;;;;;;-10.27;71.26;98135.41;4843682;29;20056;-69
2021/12/24 15:24:21;;;;;;;26.63;14.43;;;;;;;-10.12;70.89;98133.47;5013260;23;20373;-76
2021/12/24 15:26:48;;;;;;;10.20;7.50;;;;;;;-10.06;70.36;98136.84;4862183;29;20604;-76
2021/12/24 15:29:20;;;;;;;18.23;8.30;;;;;;;-10.02;70.37;98114.44;4879105;29;20135;-73
2021/12/24 15:31:49;;;;;;;21.40;9.98;;;;;;;-10.03;70.75;98118.75;4878927;29;20392;-69
2021/12/24 15:34:16;;;;;;;13.88;6.70;;;;;;;-10.07;70.93;98126.56;4846796;29;20138;-70
2021/12/24 15:36:44;;;;;;;20.83;11.70;;;;;;;-9.94;69.62;98116.06;4861921;29;20048;-69
2021/12/24 15:39:10;;;;;;;17.13;8.43;;;;;;;-10.10;69.53;98106.81;4879224;29;20100;-71
2021/12/24 15:41:37;;;;;;;22.20;10.95;;;;;;;-10.24;70.69;98111.34;4846853;29;20054;-68
2021/12/24 15:44:10;;;;;;;27.73;11.02;;;;;;;-10.15;70.29;98102.59;4879095;29;20051;-68
2021/12/24 15:46:35;;;;;;;13.50;5.28;;;;;;;-9.89;69.74;98095.34;4878791;29;20135;-68
2021/12/24 15:49:04;;;;;;;11.38;7.05;;;;;;;-9.71;69.65;98104.53;4879927;29;20089;-69
2021/12/24 15:51:28;;;;;;;16.55;9.18;;;;;;;-9.63;68.87;98102.69;4880249;29;20130;-68
2021/12/24 15:54:19;;;;;;;18.05;8.85;;;;;;;-9.70;68.89;98075.28;4863919;29;20185;-69
2021/12/24 15:56:45;;;;;;;20.55;9.43;;;;;;;-10.03;69.58;98087.81;4846385;29;20040;-69
2021/12/24 15:59:10;;;;;;;20.27;9.48;;;;;;;-10.14;69.49;98087.13;4879294;29;20055;-65
2021/12/24 16:01:35;;;;;;;23.95;13.15;;;;;;;-10.22;69.67;98080.41;4862383;29;20052;-65
2021/12/24 16:04:02;;;;;;;15.18;8.10;;;;;;;-10.17;70.27;98084.59;4846506;29;20048;-66
2021/12/24 16:06:29;;;;;;;17.98;9.50;;;;;;;-10.30;70.18;98093.41;4861533;29;20043;-71
2021/12/24 16:08:55;;;;;;;12.07;6.38;;;;;;;-10.17;69.95;98084.59;4862003;29;20047;-69
2021/12/24 16:11:21;;;;;;;15.00;7.90;;;;;;;-10.13;70.16;98087.97;4878596;29;20055;-71
2021/12/24 16:13:47;;;;;;;20.48;12.25;;;;;;;-10.32;69.33;98065.09;4880652;29;20577;-73
2021/12/24 16:16:15;;;;;;;18.40;9.15;;;;;;;-10.11;69.71;98076.78;4880503;29;20047;-72
2021/12/24 16:18:41;;;;;;;22.35;11.77;;;;;;;-10.23;69.71;98064.09;4880465;29;20192;-73
2021/12/24 16:21:08;;;;;;;20.20;11.85;;;;;;;-10.26;69.66;98069.28;4848022;29;20063;-72
2021/12/24 16:23:36;;;;;;;27.92;13.27;;;;;;;-10.35;69.89;98069.41;4863331;29;20047;-72
2021/12/24 16:26:05;;;;;;;17.67;9.95;;;;;;;-10.25;69.17;98040.09;4861318;29;20135;-73
2021/12/24 16:28:31;;;;;;;15.18;8.20;;;;;;;-10.12;69.26;98057.03;4844652;29;20121;-72
2021/12/24 16:30:56;;;;;;;14.95;9.35;;;;;;;-10.12;67.97;98039.00;4828641;29;20048;-72
2021/12/24 16:33:22;;;;;;;20.77;9.90;;;;;;;-10.20;68.53;98043.47;4844469;29;20147;-73
2021/12/24 16:35:53;;;;;;;14.60;9.02;;;;;;;-10.13;67.93;98039.88;4844673;29;20064;-72
2021/12/24 16:38:19;;;;;;;15.50;7.43;;;;;;;-10.16;68.68;98047.66;4845896;29;20055;-74
2021/12/24 16:40:45;;;;;;;13.93;8.80;;;;;;;-10.18;68.50;98049.44;4847429;29;20056;-73
2021/12/24 16:43:12;;;;;;;19.77;11.48;;;;;;;-10.10;68.00;98029.53;4862974;29;20602;-70
2021/12/24 16:45:40;;;;;;;21.38;10.85;;;;;;;-10.32;68.39;98023.88;4864150;29;20108;-67
2021/12/24 16:48:11;;;;;;;21.42;10.10;;;;;;;-10.22;67.78;98024.59;4830907;29;20044;-73
2021/12/24 16:50:42;;;;;;;19.13;8.90;;;;;;;-10.27;68.15;98010.09;4865288;29;20935;-73
2021/12/24 16:53:12;;;;;;;27.23;15.98;;;;;;;-10.50;68.30;98065.34;4849226;29;20044;-76
2021/12/24 16:55:46;;;;;;;19.48;9.10;;;;;;;-10.17;67.06;98022.78;4865201;29;20063;-73
2021/12/24 16:58:15;;;;;;;12.45;6.00;;;;;;;-10.05;67.69;98025.16;4864418;29;20040;-71
2021/12/24 17:00:51;;;;;;;17.13;7.85;;;;;;;-10.33;67.52;98036.78;4864352;29;20052;-73
2021/12/24 17:03:19;;;;;;;11.05;5.68;;;;;;;-10.05;67.97;98056.09;4833278;29;20044;-73
2021/12/24 17:05:44;;;;;;;18.90;8.82;;;;;;;-10.00;67.30;98059.44;4864642;29;20108;-73
2021/12/24 17:08:10;;;;;;;15.90;8.10;;;;;;;-10.05;66.81;98037.19;4864993;29;20126;-72
2021/12/24 17:10:37;;;;;;;14.43;7.35;;;;;;;-10.09;66.82;98051.00;4864035;29;20829;-72
2021/12/24 17:13:04;;;;;;;12.30;6.55;;;;;;;-10.34;67.28;98051.38;4848255;29;20057;-70
2021/12/24 17:15:31;;;;;;;17.90;10.57;;;;;;;-10.49;67.23;98032.69;4831722;29;20091;-71
2021/12/24 17:17:56;;;;;;;14.50;8.63;;;;;;;-10.80;67.72;98017.66;4865195;29;20138;-71
2021/12/24 17:20:23;;;;;;;19.17;10.57;;;;;;;-10.93;68.31;98018.69;4864322;29;20056;-71
2021/12/24 17:22:51;;;;;;;14.55;7.40;;;;;;;-10.85;68.12;98037.50;4863877;29;20494;-71
2021/12/24 17:25:20;;;;;;;9.07;5.57;;;;;;;-10.83;68.41;98029.72;4844015;29;20100;-71
2021/12/24 17:27:48;;;;;;;9.93;5.30;;;;;;;-10.86;67.77;98025.50;4882192;29;20056;-71
2021/12/24 17:30:17;;;;;;;12.70;5.80;;;;;;;-10.95;68.04;98024.75;4865761;29;20056;-71
2021/12/24 17:32:47;;;;;;;19.85;8.48;;;;;;;-10.90;67.77;98020.38;4882359;29;20103;-72
2021/12/24 17:35:16;;;;;;;13.00;5.63;;;;;;;-11.10;68.06;98023.22;4865008;29;20139;-71
2021/12/24 17:37:41;;;;;;;10.55;5.78;;;;;;;-10.96;67.04;98021.31;4882067;29;20047;-71
2021/12/24 17:40:11;;;;;;;13.45;6.82;;;;;;;-11.25;67.30;98021.66;4881857;29;20077;-71
2021/12/24 17:42:37;;;;;;;19.65;9.70;;;;;;;-11.50;67.72;98022.78;4882078;29;20431;-72
2021/12/24 17:45:08;;;;;;;17.92;8.63;;;;;;;-11.43;68.05;98024.44;4881918;29;20059;-72
2021/12/24 17:47:34;;;;;;;7.40;3.50;;;;;;;-11.42;68.33;98000.44;4882008;29;20054;-71
2021/12/24 17:50:00;;;;;;;16.85;8.07;;;;;;;-11.76;67.77;98007.66;4881693;29;20098;-71
2021/12/24 17:52:26;;;;;;;18.58;10.07;;;;;;;-11.96;68.17;98001.84;4881884;29;20044;-72
2021/12/24 17:54:51;;;;;;;18.45;10.15;;;;;;;-12.14;68.87;98001.13;4881848;29;20044;-72
2021/12/24 17:57:16;;;;;;;11.48;7.13;;;;;;;-11.99;68.31;97996.75;4882232;29;20589;-71
2021/12/24 17:59:45;;;;;;;15.70;6.78;;;;;;;-11.96;67.87;98009.56;4865319;29;20574;-71
2021/12/24 18:02:14;;;;;;;18.17;9.85;;;;;;;-12.22;67.53;98002.91;4881722;29;20495;-72
2021/12/24 18:04:40;;;;;;;9.38;6.05;;;;;;;-12.07;67.71;97999.34;4881608;29;20048;-71
2021/12/24 18:07:06;;;;;;;15.63;9.35;;;;;;;-12.31;68.37;98002.16;4881564;29;20095;-72
2021/12/24 18:09:33;;;;;;;13.23;7.13;;;;;;;-12.29;68.21;98008.09;4881527;29;20131;-71
2021/12/24 18:12:02;;;;;;;22.40;9.85;;;;;;;-12.34;68.00;98013.28;4881612;29;20052;-73
2021/12/24 18:14:27;;;;;;;12.60;6.85;;;;;;;-11.80;67.58;98011.97;4864840;29;20051;-71
2021/12/24 18:16:56;;;;;;;10.15;6.32;;;;;;;-12.05;66.81;98014.75;4864426;29;20062;-72
2021/12/24 18:19:24;;;;;;;12.73;8.00;;;;;;;-12.04;66.67;98017.31;4864597;29;20050;-72
2021/12/24 18:21:48;;;;;;;16.33;7.35;;;;;;;-11.92;66.40;98011.22;4881395;29;20056;-70
2021/12/24 18:24:20;;;;;;;11.80;7.15;;;;;;;-12.01;65.98;97990.75;4865010;29;20515;-72
2021/12/24 18:26:47;;;;;;;10.93;6.90;;;;;;;-12.17;66.58;97978.03;4864564;29;20048;-71
2021/12/24 18:29:16;;;;;;;11.02;5.95;;;;;;;-12.12;65.65;97949.75;4849066;29;20039;-72
2021/12/24 18:31:42;;;;;;;17.58;8.95;;;;;;;-12.31;66.48;97967.06;4864358;29;20384;-72
2021/12/24 18:34:32;;;;;;;13.48;8.55;;;;;;;-12.35;66.30;97954.25;4864518;29;20059;-71
2021/12/24 18:36:57;;;;;;;10.73;5.82;;;;;;;-12.02;65.79;97948.81;4881079;29;20059;-71
2021/12/24 18:39:23;;;;;;;6.10;3.88;;;;;;;-12.00;66.10;97946.22;4880906;29;20084;-71
2021/12/24 18:41:49;;;;;;;16.42;7.63;;;;;;;-12.09;65.91;97956.59;4864185;29;20137;-71
2021/12/24 18:44:18;;;;;;;14.07;7.20;;;;;;;-12.15;66.28;97955.78;4848968;29;20526;-69
2021/12/24 18:46:47;;;;;;;14.68;7.00;;;;;;;-12.34;66.16;97969.63;4864158;29;20082;-72
2021/12/24 18:49:16;;;;;;;19.92;10.10;;;;;;;-12.57;65.77;97953.56;4881110;29;20090;-72
2021/12/24 18:52:09;;;;;;;13.02;5.72;;;;;;;-12.55;66.87;97956.97;4880705;29;20062;-71
2021/12/24 18:54:35;;;;;;;15.98;9.88;;;;;;;-12.70;66.31;97946.78;4880906;29;20054;-72
2021/12/24 18:57:02;;;;;;;13.05;5.75;;;;;;;-12.56;67.09;97950.13;4880990;29;20040;-72
2021/12/24 18:59:29;;;;;;;19.58;9.27;;;;;;;-12.67;66.16;97949.34;4863521;29;20602;-72
2021/12/24 19:01:54;;;;;;;20.02;10.82;;;;;;;-12.78;65.46;97938.31;4880219;29;20048;-71
2021/12/24 19:04:20;;;;;;;19.77;9.25;;;;;;;-12.58;65.61;97941.59;4848639;29;20039;-72
2021/12/24 19:06:47;;;;;;;17.27;8.20;;;;;;;-12.48;66.18;97938.94;4881523;29;20047;-71
2021/12/24 19:09:19;;;;;;;10.55;5.53;;;;;;;-12.28;66.35;97936.19;4864191;29;20052;-71
2021/12/24 19:11:47;;;;;;;11.68;4.93;;;;;;;-12.26;65.25;97925.91;4881300;29;20560;-70
2021/12/24 19:14:12;;;;;;;19.75;8.10;;;;;;;-12.50;65.77;97902.16;4864746;29;20055;-72
2021/12/24 19:17:03;;;;;;;15.90;8.07;;;;;;;-12.28;64.57;97914.78;4863412;29;20047;-71
2021/12/24 19:19:29;;;;;;;16.65;8.68;;;;;;;-12.50;65.04;97906.44;4881431;29;20399;-72
2021/12/24 19:21:55;;;;;;;21.98;9.18;;;;;;;-12.63;65.43;97918.50;4881631;29;20505;-72
2021/12/24 19:24:27;;;;;;;9.55;4.38;;;;;;;-12.30;65.33;97924.25;4848731;29;20098;-72
2021/12/24 19:26:57;;;;;;;8.50;3.97;;;;;;;-12.30;65.26;97917.38;4849806;29;20051;-73
2021/12/24 19:29:26;;;;;;;11.23;5.18;;;;;;;-12.14;64.33;97905.25;4863419;29;20082;-71
2021/12/24 19:32:00;;;;;;;7.60;4.85;;;;;;;-12.16;64.55;97900.13;4863907;29;20043;-67
2021/12/24 19:34:27;;;;;;;14.05;7.28;;;;;;;-12.41;64.50;97890.94;4880213;29;20110;-69
2021/12/24 19:36:55;;;;;;;14.55;7.85;;;;;;;-12.45;64.78;97886.72;4881232;29;20083;-70
2021/12/24 19:39:26;;;;;;;5.93;3.70;;;;;;;-12.38;65.63;97887.50;4863255;29;20056;-71
2021/12/24 19:41:52;;;;;;;14.77;7.45;;;;;;;-12.62;66.19;97878.31;4863254;29;20098;-69
2021/12/24 19:44:21;;;;;;;18.95;10.35;;;;;;;-12.79;66.29;97880.16;4864823;29;20054;-73
2021/12/24 19:46:49;;;;;;;15.93;7.22;;;;;;;-12.26;65.87;97882.25;4865168;29;20047;-73
2021/12/24 19:49:19;;;;;;;17.02;7.88;;;;;;;-12.31;65.09;97868.63;4878807;29;20048;-69
2021/12/24 19:51:45;;;;;;;7.25;4.60;;;;;;;-12.38;65.80;97872.97;4864318;29;20407;-68
2021/12/24 19:54:11;;;;;;;8.55;6.35;;;;;;;-12.12;65.35;97875.28;4879503;29;20510;-71
2021/12/24 19:56:41;;;;;;;12.63;7.18;;;;;;;-12.27;64.86;97872.84;4862670;29;20052;-71
2021/12/24 19:59:08;;;;;;;16.15;6.95;;;;;;;-12.38;65.48;97860.13;4880031;29;20044;-69